< < Back
Terminal Aerodrome Forecast


Current Version              Previous Versions:   1  2  3  4  5  6  7  8  9  

Terminal Aerodrome Forecast

545
FTUS42 KTAE 252300
TAFDHN
TAF
KDHN 252320Z 2600/2624 33005KT P6SM SKC
      TEMPO 2600/2602 5SM BLSA=

Latest METAR

299
SAUS70 KWBC 252300 RRB
MTRDHN
METAR KDHN 252253Z 32005KT 1 1/2SM HZ FEW002 22/10 A3005 RMK AO2 VIS
1/2V5 SLP172 T02170100


USA.gov is the U.S. government's official web portal to all federal, state and local government web resources and services.